sensor_id;sensor_type;location;lat;lon;timestamp;P1;durP1;ratioP1;P2;durP2;ratioP2
5999;SDS011;3028;49.468;7.694;2022-10-22T00:01:49;0.77;;;0.77;;
5999;SDS011;3028;49.468;7.694;2022-10-22T00:03:50;0.63;;;0.63;;
5999;SDS011;3028;49.468;7.694;2022-10-22T00:05:52;0.80;;;0.80;;
5999;SDS011;3028;49.468;7.694;2022-10-22T00:07:54;0.40;;;0.40;;
5999;SDS011;3028;49.468;7.694;2022-10-22T00:09:55;0.77;;;0.68;;
5999;SDS011;3028;49.468;7.694;2022-10-22T00:11:57;1.10;;;0.85;;
5999;SDS011;3028;49.468;7.694;2022-10-22T00:13:59;0.50;;;0.50;;
5999;SDS011;3028;49.468;7.694;2022-10-22T00:16:00;0.82;;;0.80;;
5999;SDS011;3028;49.468;7.694;2022-10-22T00:18:02;0.63;;;0.63;;
5999;SDS011;3028;49.468;7.694;2022-10-22T00:20:04;0.70;;;0.70;;
5999;SDS011;3028;49.468;7.694;2022-10-22T00:22:06;0.70;;;0.70;;
5999;SDS011;3028;49.468;7.694;2022-10-22T00:24:10;0.47;;;0.47;;
5999;SDS011;3028;49.468;7.694;2022-10-22T00:26:11;0.93;;;0.90;;
5999;SDS011;3028;49.468;7.694;2022-10-22T00:28:13;1.95;;;0.63;;
5999;SDS011;3028;49.468;7.694;2022-10-22T00:30:15;1.20;;;0.98;;
5999;SDS011;3028;49.468;7.694;2022-10-22T00:32:17;0.47;;;0.47;;
5999;SDS011;3028;49.468;7.694;2022-10-22T00:34:19;0.80;;;0.80;;
5999;SDS011;3028;49.468;7.694;2022-10-22T00:36:22;0.50;;;0.50;;
5999;SDS011;3028;49.468;7.694;2022-10-22T00:38:24;0.50;;;0.50;;
5999;SDS011;3028;49.468;7.694;2022-10-22T00:40:26;0.60;;;0.60;;
5999;SDS011;3028;49.468;7.694;2022-10-22T00:42:27;0.55;;;0.50;;
5999;SDS011;3028;49.468;7.694;2022-10-22T00:46:59;0.57;;;0.50;;
5999;SDS011;3028;49.468;7.694;2022-10-22T00:49:01;0.65;;;0.65;;
5999;SDS011;3028;49.468;7.694;2022-10-22T00:51:04;0.43;;;0.43;;
5999;SDS011;3028;49.468;7.694;2022-10-22T00:53:14;0.60;;;0.60;;
5999;SDS011;3028;49.468;7.694;2022-10-22T00:55:21;1.27;;;0.50;;
5999;SDS011;3028;49.468;7.694;2022-10-22T00:57:24;0.60;;;0.60;;
5999;SDS011;3028;49.468;7.694;2022-10-22T00:59:27;0.70;;;0.70;;
5999;SDS011;3028;49.468;7.694;2022-10-22T01:01:29;1.85;;;0.93;;
5999;SDS011;3028;49.468;7.694;2022-10-22T01:03:32;0.40;;;0.40;;
5999;SDS011;3028;49.468;7.694;2022-10-22T01:05:53;0.60;;;0.60;;
5999;SDS011;3028;49.468;7.694;2022-10-22T01:16:18;0.70;;;0.63;;
5999;SDS011;3028;49.468;7.694;2022-10-22T01:30:13;1.05;;;0.70;;
5999;SDS011;3028;49.468;7.694;2022-10-22T01:32:16;1.67;;;0.52;;
5999;SDS011;3028;49.468;7.694;2022-10-22T01:34:20;0.60;;;0.60;;
5999;SDS011;3028;49.468;7.694;2022-10-22T01:36:23;0.50;;;0.50;;
5999;SDS011;3028;49.468;7.694;2022-10-22T01:38:25;0.45;;;0.45;;
5999;SDS011;3028;49.468;7.694;2022-10-22T01:40:27;0.40;;;0.40;;
5999;SDS011;3028;49.468;7.694;2022-10-22T01:42:29;0.38;;;0.38;;
5999;SDS011;3028;49.468;7.694;2022-10-22T01:44:32;0.40;;;0.40;;
5999;SDS011;3028;49.468;7.694;2022-10-22T01:46:42;0.52;;;0.52;;
5999;SDS011;3028;49.468;7.694;2022-10-22T01:59:56;1.13;;;0.70;;
5999;SDS011;3028;49.468;7.694;2022-10-22T02:04:34;0.52;;;0.52;;
5999;SDS011;3028;49.468;7.694;2022-10-22T02:06:41;0.50;;;0.50;;
5999;SDS011;3028;49.468;7.694;2022-10-22T02:08:44;0.50;;;0.50;;
5999;SDS011;3028;49.468;7.694;2022-10-22T02:10:49;0.60;;;0.60;;
5999;SDS011;3028;49.468;7.694;2022-10-22T02:12:52;0.50;;;0.50;;
5999;SDS011;3028;49.468;7.694;2022-10-22T02:14:55;3.28;;;0.63;;
5999;SDS011;3028;49.468;7.694;2022-10-22T02:16:57;0.60;;;0.50;;
5999;SDS011;3028;49.468;7.694;2022-10-22T02:19:01;0.50;;;0.50;;
5999;SDS011;3028;49.468;7.694;2022-10-22T02:21:07;0.50;;;0.50;;
5999;SDS011;3028;49.468;7.694;2022-10-22T02:23:08;0.80;;;0.80;;
5999;SDS011;3028;49.468;7.694;2022-10-22T02:25:10;0.30;;;0.30;;
5999;SDS011;3028;49.468;7.694;2022-10-22T02:29:36;0.52;;;0.45;;
5999;SDS011;3028;49.468;7.694;2022-10-22T02:31:42;0.43;;;0.43;;
5999;SDS011;3028;49.468;7.694;2022-10-22T02:33:45;0.50;;;0.50;;
5999;SDS011;3028;49.468;7.694;2022-10-22T02:35:48;0.45;;;0.45;;
5999;SDS011;3028;49.468;7.694;2022-10-22T02:37:51;0.60;;;0.60;;
5999;SDS011;3028;49.468;7.694;2022-10-22T02:39:55;4.88;;;0.70;;
5999;SDS011;3028;49.468;7.694;2022-10-22T02:41:56;0.65;;;0.52;;
5999;SDS011;3028;49.468;7.694;2022-10-22T02:43:58;0.32;;;0.32;;
5999;SDS011;3028;49.468;7.694;2022-10-22T02:46:00;0.45;;;0.45;;
5999;SDS011;3028;49.468;7.694;2022-10-22T02:48:01;0.40;;;0.40;;
5999;SDS011;3028;49.468;7.694;2022-10-22T02:50:04;0.50;;;0.50;;
5999;SDS011;3028;49.468;7.694;2022-10-22T02:52:10;0.50;;;0.50;;
5999;SDS011;3028;49.468;7.694;2022-10-22T02:54:12;0.70;;;0.40;;
5999;SDS011;3028;49.468;7.694;2022-10-22T02:56:13;1.20;;;1.15;;
5999;SDS011;3028;49.468;7.694;2022-10-22T02:58:15;0.50;;;0.50;;
5999;SDS011;3028;49.468;7.694;2022-10-22T03:00:17;0.50;;;0.50;;
5999;SDS011;3028;49.468;7.694;2022-10-22T03:02:19;0.60;;;0.60;;
5999;SDS011;3028;49.468;7.694;2022-10-22T03:04:21;0.52;;;0.43;;
5999;SDS011;3028;49.468;7.694;2022-10-22T03:06:22;0.40;;;0.40;;
5999;SDS011;3028;49.468;7.694;2022-10-22T03:08:27;0.57;;;0.57;;
5999;SDS011;3028;49.468;7.694;2022-10-22T03:10:28;0.50;;;0.50;;
5999;SDS011;3028;49.468;7.694;2022-10-22T03:12:30;0.45;;;0.45;;
5999;SDS011;3028;49.468;7.694;2022-10-22T03:14:32;0.60;;;0.60;;
5999;SDS011;3028;49.468;7.694;2022-10-22T03:16:33;0.60;;;0.55;;
5999;SDS011;3028;49.468;7.694;2022-10-22T03:18:35;0.45;;;0.45;;
5999;SDS011;3028;49.468;7.694;2022-10-22T03:20:37;0.40;;;0.40;;
5999;SDS011;3028;49.468;7.694;2022-10-22T03:22:39;0.65;;;0.40;;
5999;SDS011;3028;49.468;7.694;2022-10-22T03:24:43;1.88;;;0.40;;
5999;SDS011;3028;49.468;7.694;2022-10-22T03:26:45;0.32;;;0.32;;
5999;SDS011;3028;49.468;7.694;2022-10-22T03:28:50;0.50;;;0.50;;
5999;SDS011;3028;49.468;7.694;2022-10-22T03:30:51;2.85;;;0.93;;
5999;SDS011;3028;49.468;7.694;2022-10-22T03:32:53;0.43;;;0.43;;
5999;SDS011;3028;49.468;7.694;2022-10-22T03:34:55;0.40;;;0.40;;
5999;SDS011;3028;49.468;7.694;2022-10-22T03:36:57;1.30;;;0.50;;
5999;SDS011;3028;49.468;7.694;2022-10-22T03:39:00;0.40;;;0.40;;
5999;SDS011;3028;49.468;7.694;2022-10-22T03:41:02;0.50;;;0.50;;
5999;SDS011;3028;49.468;7.694;2022-10-22T03:43:03;0.40;;;0.40;;
5999;SDS011;3028;49.468;7.694;2022-10-22T03:45:05;0.40;;;0.40;;
5999;SDS011;3028;49.468;7.694;2022-10-22T03:47:07;0.40;;;0.40;;
5999;SDS011;3028;49.468;7.694;2022-10-22T03:49:10;0.60;;;0.60;;
5999;SDS011;3028;49.468;7.694;2022-10-22T03:51:12;0.60;;;0.60;;
5999;SDS011;3028;49.468;7.694;2022-10-22T03:53:13;0.55;;;0.55;;
5999;SDS011;3028;49.468;7.694;2022-10-22T03:55:15;2.38;;;0.47;;
5999;SDS011;3028;49.468;7.694;2022-10-22T03:57:17;3.00;;;0.43;;
5999;SDS011;3028;49.468;7.694;2022-10-22T03:59:19;0.50;;;0.50;;
5999;SDS011;3028;49.468;7.694;2022-10-22T04:01:20;0.75;;;0.50;;
5999;SDS011;3028;49.468;7.694;2022-10-22T04:03:22;0.50;;;0.50;;
5999;SDS011;3028;49.468;7.694;2022-10-22T04:05:23;0.50;;;0.50;;
5999;SDS011;3028;49.468;7.694;2022-10-22T04:07:25;0.50;;;0.50;;
5999;SDS011;3028;49.468;7.694;2022-10-22T04:09:29;0.47;;;0.47;;
5999;SDS011;3028;49.468;7.694;2022-10-22T04:11:32;0.47;;;0.47;;
5999;SDS011;3028;49.468;7.694;2022-10-22T04:13:34;0.52;;;0.52;;
5999;SDS011;3028;49.468;7.694;2022-10-22T04:15:36;0.50;;;0.50;;
5999;SDS011;3028;49.468;7.694;2022-10-22T04:17:37;0.68;;;0.68;;
5999;SDS011;3028;49.468;7.694;2022-10-22T04:19:40;0.65;;;0.65;;
5999;SDS011;3028;49.468;7.694;2022-10-22T04:21:41;0.47;;;0.47;;
5999;SDS011;3028;49.468;7.694;2022-10-22T04:23:46;0.63;;;0.63;;
5999;SDS011;3028;49.468;7.694;2022-10-22T04:25:49;0.70;;;0.70;;
5999;SDS011;3028;49.468;7.694;2022-10-22T04:27:50;2.55;;;0.52;;
5999;SDS011;3028;49.468;7.694;2022-10-22T04:29:52;0.50;;;0.50;;
5999;SDS011;3028;49.468;7.694;2022-10-22T04:31:54;0.45;;;0.45;;
5999;SDS011;3028;49.468;7.694;2022-10-22T04:33:56;0.50;;;0.50;;
5999;SDS011;3028;49.468;7.694;2022-10-22T04:35:59;0.50;;;0.50;;
5999;SDS011;3028;49.468;7.694;2022-10-22T04:38:01;0.40;;;0.40;;
5999;SDS011;3028;49.468;7.694;2022-10-22T04:40:03;0.68;;;0.68;;
5999;SDS011;3028;49.468;7.694;2022-10-22T04:42:05;0.35;;;0.35;;
5999;SDS011;3028;49.468;7.694;2022-10-22T04:44:06;0.60;;;0.60;;
5999;SDS011;3028;49.468;7.694;2022-10-22T04:46:19;0.55;;;0.55;;
5999;SDS011;3028;49.468;7.694;2022-10-22T04:48:21;0.75;;;0.65;;
5999;SDS011;3028;49.468;7.694;2022-10-22T04:50:22;0.50;;;0.50;;
5999;SDS011;3028;49.468;7.694;2022-10-22T04:52:24;0.40;;;0.40;;
5999;SDS011;3028;49.468;7.694;2022-10-22T04:54:25;0.40;;;0.40;;
5999;SDS011;3028;49.468;7.694;2022-10-22T04:56:33;0.60;;;0.60;;
5999;SDS011;3028;49.468;7.694;2022-10-22T04:58:34;10.02;;;2.05;;
5999;SDS011;3028;49.468;7.694;2022-10-22T05:00:38;0.50;;;0.50;;
5999;SDS011;3028;49.468;7.694;2022-10-22T05:02:40;0.75;;;0.70;;
5999;SDS011;3028;49.468;7.694;2022-10-22T05:04:44;0.50;;;0.50;;
5999;SDS011;3028;49.468;7.694;2022-10-22T05:06:46;0.55;;;0.52;;
5999;SDS011;3028;49.468;7.694;2022-10-22T05:08:51;0.65;;;0.57;;
5999;SDS011;3028;49.468;7.694;2022-10-22T05:10:57;0.50;;;0.50;;
5999;SDS011;3028;49.468;7.694;2022-10-22T05:12:58;0.40;;;0.40;;
5999;SDS011;3028;49.468;7.694;2022-10-22T05:15:00;0.60;;;0.60;;
5999;SDS011;3028;49.468;7.694;2022-10-22T05:17:02;0.77;;;0.77;;
5999;SDS011;3028;49.468;7.694;2022-10-22T05:19:04;0.40;;;0.40;;
5999;SDS011;3028;49.468;7.694;2022-10-22T05:21:07;0.50;;;0.50;;
5999;SDS011;3028;49.468;7.694;2022-10-22T05:23:12;0.65;;;0.60;;
5999;SDS011;3028;49.468;7.694;2022-10-22T05:25:14;4.88;;;0.93;;
5999;SDS011;3028;49.468;7.694;2022-10-22T05:27:16;0.40;;;0.40;;
5999;SDS011;3028;49.468;7.694;2022-10-22T05:29:18;1.35;;;0.60;;
5999;SDS011;3028;49.468;7.694;2022-10-22T05:31:20;0.50;;;0.50;;
5999;SDS011;3028;49.468;7.694;2022-10-22T05:33:22;0.68;;;0.68;;
5999;SDS011;3028;49.468;7.694;2022-10-22T05:35:24;0.50;;;0.50;;
5999;SDS011;3028;49.468;7.694;2022-10-22T05:37:26;0.40;;;0.40;;
5999;SDS011;3028;49.468;7.694;2022-10-22T05:39:27;0.40;;;0.40;;
5999;SDS011;3028;49.468;7.694;2022-10-22T05:41:29;0.60;;;0.60;;
5999;SDS011;3028;49.468;7.694;2022-10-22T05:43:31;0.60;;;0.60;;
5999;SDS011;3028;49.468;7.694;2022-10-22T05:45:39;0.50;;;0.50;;
5999;SDS011;3028;49.468;7.694;2022-10-22T05:47:41;0.60;;;0.60;;
5999;SDS011;3028;49.468;7.694;2022-10-22T05:49:43;0.55;;;0.40;;
5999;SDS011;3028;49.468;7.694;2022-10-22T05:51:44;0.60;;;0.60;;
5999;SDS011;3028;49.468;7.694;2022-10-22T05:53:50;0.60;;;0.60;;
5999;SDS011;3028;49.468;7.694;2022-10-22T05:55:52;0.38;;;0.38;;
5999;SDS011;3028;49.468;7.694;2022-10-22T05:57:54;0.30;;;0.30;;
5999;SDS011;3028;49.468;7.694;2022-10-22T05:59:55;0.50;;;0.50;;
5999;SDS011;3028;49.468;7.694;2022-10-22T06:01:57;0.50;;;0.50;;
5999;SDS011;3028;49.468;7.694;2022-10-22T06:03:59;0.40;;;0.40;;
5999;SDS011;3028;49.468;7.694;2022-10-22T06:06:04;0.60;;;0.50;;
5999;SDS011;3028;49.468;7.694;2022-10-22T06:08:15;0.40;;;0.40;;
5999;SDS011;3028;49.468;7.694;2022-10-22T06:10:19;2.78;;;0.50;;
5999;SDS011;3028;49.468;7.694;2022-10-22T06:12:21;0.75;;;0.50;;
5999;SDS011;3028;49.468;7.694;2022-10-22T06:14:23;0.68;;;0.68;;
5999;SDS011;3028;49.468;7.694;2022-10-22T06:16:27;0.40;;;0.40;;
5999;SDS011;3028;49.468;7.694;2022-10-22T06:18:29;1.15;;;0.70;;
5999;SDS011;3028;49.468;7.694;2022-10-22T06:20:32;0.60;;;0.60;;
5999;SDS011;3028;49.468;7.694;2022-10-22T06:22:35;5.47;;;1.02;;
5999;SDS011;3028;49.468;7.694;2022-10-22T06:24:36;0.57;;;0.57;;
5999;SDS011;3028;49.468;7.694;2022-10-22T06:26:43;8.95;;;1.02;;
5999;SDS011;3028;49.468;7.694;2022-10-22T06:28:44;0.47;;;0.47;;
5999;SDS011;3028;49.468;7.694;2022-10-22T06:30:46;0.60;;;0.60;;
5999;SDS011;3028;49.468;7.694;2022-10-22T06:32:48;0.40;;;0.40;;
5999;SDS011;3028;49.468;7.694;2022-10-22T06:34:50;0.88;;;0.88;;
5999;SDS011;3028;49.468;7.694;2022-10-22T06:36:52;1.15;;;1.02;;
5999;SDS011;3028;49.468;7.694;2022-10-22T06:38:54;1.73;;;1.27;;
5999;SDS011;3028;49.468;7.694;2022-10-22T06:41:15;7.78;;;1.52;;
5999;SDS011;3028;49.468;7.694;2022-10-22T06:43:16;1.45;;;0.90;;
5999;SDS011;3028;49.468;7.694;2022-10-22T06:45:18;1.45;;;1.30;;
5999;SDS011;3028;49.468;7.694;2022-10-22T06:47:20;1.00;;;0.90;;
5999;SDS011;3028;49.468;7.694;2022-10-22T06:49:21;1.13;;;1.10;;
5999;SDS011;3028;49.468;7.694;2022-10-22T06:51:23;1.20;;;1.10;;
5999;SDS011;3028;49.468;7.694;2022-10-22T06:53:27;1.95;;;1.67;;
5999;SDS011;3028;49.468;7.694;2022-10-22T06:55:32;1.48;;;1.38;;
5999;SDS011;3028;49.468;7.694;2022-10-22T06:57:36;1.48;;;1.38;;
5999;SDS011;3028;49.468;7.694;2022-10-22T06:59:38;3.28;;;1.00;;
5999;SDS011;3028;49.468;7.694;2022-10-22T07:01:40;1.38;;;1.20;;
5999;SDS011;3028;49.468;7.694;2022-10-22T07:03:42;1.83;;;1.27;;
5999;SDS011;3028;49.468;7.694;2022-10-22T07:05:44;1.92;;;1.83;;
5999;SDS011;3028;49.468;7.694;2022-10-22T07:07:46;1.20;;;1.10;;
5999;SDS011;3028;49.468;7.694;2022-10-22T07:09:47;2.28;;;1.33;;
5999;SDS011;3028;49.468;7.694;2022-10-22T07:11:51;1.17;;;1.13;;
5999;SDS011;3028;49.468;7.694;2022-10-22T07:13:54;2.10;;;1.85;;
5999;SDS011;3028;49.468;7.694;2022-10-22T07:15:56;1.70;;;1.60;;
5999;SDS011;3028;49.468;7.694;2022-10-22T07:17:58;1.88;;;1.70;;
5999;SDS011;3028;49.468;7.694;2022-10-22T07:20:00;1.92;;;1.70;;
5999;SDS011;3028;49.468;7.694;2022-10-22T07:22:01;2.05;;;1.95;;
5999;SDS011;3028;49.468;7.694;2022-10-22T07:24:03;1.40;;;1.27;;
5999;SDS011;3028;49.468;7.694;2022-10-22T07:26:08;2.55;;;2.08;;
5999;SDS011;3028;49.468;7.694;2022-10-22T07:28:11;4.88;;;2.47;;
5999;SDS011;3028;49.468;7.694;2022-10-22T07:30:12;1.38;;;1.27;;
5999;SDS011;3028;49.468;7.694;2022-10-22T07:32:14;1.85;;;1.70;;
5999;SDS011;3028;49.468;7.694;2022-10-22T07:34:18;0.75;;;0.75;;
5999;SDS011;3028;49.468;7.694;2022-10-22T07:36:20;0.85;;;0.85;;
5999;SDS011;3028;49.468;7.694;2022-10-22T07:38:22;1.52;;;0.75;;
5999;SDS011;3028;49.468;7.694;2022-10-22T07:40:26;0.60;;;0.60;;
5999;SDS011;3028;49.468;7.694;2022-10-22T07:42:28;0.40;;;0.40;;
5999;SDS011;3028;49.468;7.694;2022-10-22T07:44:29;0.38;;;0.38;;
5999;SDS011;3028;49.468;7.694;2022-10-22T07:46:31;0.57;;;0.30;;
5999;SDS011;3028;49.468;7.694;2022-10-22T07:48:35;0.40;;;0.40;;
5999;SDS011;3028;49.468;7.694;2022-10-22T07:50:37;0.30;;;0.30;;
5999;SDS011;3028;49.468;7.694;2022-10-22T07:52:39;0.30;;;0.30;;
5999;SDS011;3028;49.468;7.694;2022-10-22T07:54:41;0.40;;;0.40;;
5999;SDS011;3028;49.468;7.694;2022-10-22T07:56:43;0.22;;;0.22;;
5999;SDS011;3028;49.468;7.694;2022-10-22T07:58:45;0.35;;;0.35;;
5999;SDS011;3028;49.468;7.694;2022-10-22T08:00:47;0.20;;;0.20;;
5999;SDS011;3028;49.468;7.694;2022-10-22T08:02:49;0.47;;;0.47;;
5999;SDS011;3028;49.468;7.694;2022-10-22T08:04:50;0.22;;;0.22;;
5999;SDS011;3028;49.468;7.694;2022-10-22T08:06:52;0.40;;;0.40;;
5999;SDS011;3028;49.468;7.694;2022-10-22T08:08:54;0.30;;;0.30;;
5999;SDS011;3028;49.468;7.694;2022-10-22T08:10:56;0.55;;;0.30;;
5999;SDS011;3028;49.468;7.694;2022-10-22T08:12:59;0.20;;;0.20;;
5999;SDS011;3028;49.468;7.694;2022-10-22T08:15:00;0.10;;;0.10;;
5999;SDS011;3028;49.468;7.694;2022-10-22T08:17:02;0.30;;;0.30;;
5999;SDS011;3028;49.468;7.694;2022-10-22T08:19:04;0.30;;;0.30;;
5999;SDS011;3028;49.468;7.694;2022-10-22T08:21:05;0.30;;;0.30;;
5999;SDS011;3028;49.468;7.694;2022-10-22T08:23:07;0.40;;;0.40;;
5999;SDS011;3028;49.468;7.694;2022-10-22T08:25:09;0.22;;;0.22;;
5999;SDS011;3028;49.468;7.694;2022-10-22T08:27:11;0.30;;;0.30;;
5999;SDS011;3028;49.468;7.694;2022-10-22T08:29:13;0.20;;;0.20;;
5999;SDS011;3028;49.468;7.694;2022-10-22T08:31:15;0.30;;;0.30;;
5999;SDS011;3028;49.468;7.694;2022-10-22T08:33:16;1.40;;;0.52;;
5999;SDS011;3028;49.468;7.694;2022-10-22T08:35:18;1.00;;;0.30;;
5999;SDS011;3028;49.468;7.694;2022-10-22T08:37:20;0.10;;;0.10;;
5999;SDS011;3028;49.468;7.694;2022-10-22T08:39:21;0.73;;;0.30;;
5999;SDS011;3028;49.468;7.694;2022-10-22T08:41:23;0.20;;;0.20;;
5999;SDS011;3028;49.468;7.694;2022-10-22T08:45:32;0.30;;;0.30;;
5999;SDS011;3028;49.468;7.694;2022-10-22T08:50:02;0.28;;;0.28;;
5999;SDS011;3028;49.468;7.694;2022-10-22T08:52:04;0.68;;;0.40;;
5999;SDS011;3028;49.468;7.694;2022-10-22T08:54:24;0.20;;;0.20;;
5999;SDS011;3028;49.468;7.694;2022-10-22T08:56:31;0.30;;;0.30;;
5999;SDS011;3028;49.468;7.694;2022-10-22T08:58:41;0.20;;;0.20;;
5999;SDS011;3028;49.468;7.694;2022-10-22T09:00:53;0.30;;;0.30;;
5999;SDS011;3028;49.468;7.694;2022-10-22T09:03:09;0.45;;;0.30;;
5999;SDS011;3028;49.468;7.694;2022-10-22T09:07:55;0.32;;;0.32;;
5999;SDS011;3028;49.468;7.694;2022-10-22T09:09:57;0.30;;;0.30;;
5999;SDS011;3028;49.468;7.694;2022-10-22T09:11:59;0.30;;;0.30;;
5999;SDS011;3028;49.468;7.694;2022-10-22T09:14:02;0.20;;;0.20;;
5999;SDS011;3028;49.468;7.694;2022-10-22T09:16:15;0.30;;;0.30;;
5999;SDS011;3028;49.468;7.694;2022-10-22T09:25:51;0.20;;;0.20;;
5999;SDS011;3028;49.468;7.694;2022-10-22T09:27:53;0.32;;;0.32;;
5999;SDS011;3028;49.468;7.694;2022-10-22T09:29:59;0.20;;;0.20;;
5999;SDS011;3028;49.468;7.694;2022-10-22T09:32:01;0.52;;;0.30;;
5999;SDS011;3028;49.468;7.694;2022-10-22T09:34:03;0.22;;;0.22;;
5999;SDS011;3028;49.468;7.694;2022-10-22T09:36:07;0.43;;;0.32;;
5999;SDS011;3028;49.468;7.694;2022-10-22T09:38:17;0.68;;;0.35;;
5999;SDS011;3028;49.468;7.694;2022-10-22T09:40:22;0.43;;;0.30;;
5999;SDS011;3028;49.468;7.694;2022-10-22T09:42:25;0.30;;;0.30;;
5999;SDS011;3028;49.468;7.694;2022-10-22T09:44:27;1.27;;;0.63;;
5999;SDS011;3028;49.468;7.694;2022-10-22T09:46:29;0.38;;;0.30;;
5999;SDS011;3028;49.468;7.694;2022-10-22T09:48:40;2.58;;;0.20;;
5999;SDS011;3028;49.468;7.694;2022-10-22T09:50:47;0.43;;;0.38;;
5999;SDS011;3028;49.468;7.694;2022-10-22T09:52:53;0.43;;;0.32;;
5999;SDS011;3028;49.468;7.694;2022-10-22T09:55:12;1.95;;;0.52;;
5999;SDS011;3028;49.468;7.694;2022-10-22T09:57:16;0.40;;;0.40;;
5999;SDS011;3028;49.468;7.694;2022-10-22T09:59:26;0.60;;;0.40;;
5999;SDS011;3028;49.468;7.694;2022-10-22T10:01:33;0.25;;;0.25;;
5999;SDS011;3028;49.468;7.694;2022-10-22T10:03:36;0.35;;;0.32;;
5999;SDS011;3028;49.468;7.694;2022-10-22T10:05:38;0.45;;;0.45;;
5999;SDS011;3028;49.468;7.694;2022-10-22T10:07:41;1.17;;;0.20;;
5999;SDS011;3028;49.468;7.694;2022-10-22T10:09:43;1.00;;;0.55;;
5999;SDS011;3028;49.468;7.694;2022-10-22T10:11:47;7.88;;;0.80;;
5999;SDS011;3028;49.468;7.694;2022-10-22T10:14:06;0.22;;;0.22;;
5999;SDS011;3028;49.468;7.694;2022-10-22T10:16:32;0.30;;;0.30;;
5999;SDS011;3028;49.468;7.694;2022-10-22T10:28:00;0.40;;;0.40;;
5999;SDS011;3028;49.468;7.694;2022-10-22T10:30:21;0.40;;;0.40;;
5999;SDS011;3028;49.468;7.694;2022-10-22T10:37:24;0.20;;;0.20;;
5999;SDS011;3028;49.468;7.694;2022-10-22T10:42:26;1.60;;;0.40;;
5999;SDS011;3028;49.468;7.694;2022-10-22T10:47:03;0.38;;;0.38;;
5999;SDS011;3028;49.468;7.694;2022-10-22T10:49:23;0.20;;;0.20;;
5999;SDS011;3028;49.468;7.694;2022-10-22T10:56:18;0.65;;;0.30;;
5999;SDS011;3028;49.468;7.694;2022-10-22T10:58:30;1.55;;;0.30;;
5999;SDS011;3028;49.468;7.694;2022-10-22T11:00:46;0.68;;;0.40;;
5999;SDS011;3028;49.468;7.694;2022-10-22T11:05:09;0.38;;;0.30;;
5999;SDS011;3028;49.468;7.694;2022-10-22T11:07:35;0.30;;;0.30;;
5999;SDS011;3028;49.468;7.694;2022-10-22T11:09:41;1.98;;;1.23;;
5999;SDS011;3028;49.468;7.694;2022-10-22T11:12:01;0.40;;;0.40;;
5999;SDS011;3028;49.468;7.694;2022-10-22T11:14:10;0.30;;;0.30;;
5999;SDS011;3028;49.468;7.694;2022-10-22T11:16:19;0.75;;;0.30;;
5999;SDS011;3028;49.468;7.694;2022-10-22T11:18:46;1.38;;;0.32;;
5999;SDS011;3028;49.468;7.694;2022-10-22T11:20:55;0.93;;;0.43;;
5999;SDS011;3028;49.468;7.694;2022-10-22T11:22:59;0.60;;;0.43;;
5999;SDS011;3028;49.468;7.694;2022-10-22T11:25:22;0.40;;;0.40;;
5999;SDS011;3028;49.468;7.694;2022-10-22T11:27:31;0.73;;;0.60;;
5999;SDS011;3028;49.468;7.694;2022-10-22T11:30:13;0.30;;;0.30;;
5999;SDS011;3028;49.468;7.694;2022-10-22T11:32:18;0.63;;;0.40;;
5999;SDS011;3028;49.468;7.694;2022-10-22T11:34:21;0.30;;;0.20;;
5999;SDS011;3028;49.468;7.694;2022-10-22T11:36:35;7.68;;;1.75;;
5999;SDS011;3028;49.468;7.694;2022-10-22T11:38:37;0.45;;;0.38;;
5999;SDS011;3028;49.468;7.694;2022-10-22T11:43:05;0.95;;;0.95;;
5999;SDS011;3028;49.468;7.694;2022-10-22T11:47:16;0.20;;;0.20;;
5999;SDS011;3028;49.468;7.694;2022-10-22T11:49:40;0.43;;;0.40;;
5999;SDS011;3028;49.468;7.694;2022-10-22T11:51:46;0.68;;;0.40;;
5999;SDS011;3028;49.468;7.694;2022-10-22T11:53:48;0.50;;;0.43;;
5999;SDS011;3028;49.468;7.694;2022-10-22T11:58:23;0.50;;;0.50;;
5999;SDS011;3028;49.468;7.694;2022-10-22T12:00:32;1.80;;;0.40;;
5999;SDS011;3028;49.468;7.694;2022-10-22T12:02:38;0.85;;;0.43;;
5999;SDS011;3028;49.468;7.694;2022-10-22T12:04:41;0.57;;;0.50;;
5999;SDS011;3028;49.468;7.694;2022-10-22T12:06:59;0.30;;;0.30;;
5999;SDS011;3028;49.468;7.694;2022-10-22T12:09:04;1.38;;;0.40;;
5999;SDS011;3028;49.468;7.694;2022-10-22T12:13:21;0.63;;;0.30;;
5999;SDS011;3028;49.468;7.694;2022-10-22T12:15:25;0.43;;;0.43;;
5999;SDS011;3028;49.468;7.694;2022-10-22T12:17:27;0.68;;;0.20;;
5999;SDS011;3028;49.468;7.694;2022-10-22T12:19:40;0.50;;;0.47;;
5999;SDS011;3028;49.468;7.694;2022-10-22T12:21:46;0.75;;;0.28;;
5999;SDS011;3028;49.468;7.694;2022-10-22T12:23:49;0.30;;;0.30;;
5999;SDS011;3028;49.468;7.694;2022-10-22T12:25:51;0.22;;;0.20;;
5999;SDS011;3028;49.468;7.694;2022-10-22T12:27:54;0.88;;;0.30;;
5999;SDS011;3028;49.468;7.694;2022-10-22T12:29:58;1.73;;;0.40;;
5999;SDS011;3028;49.468;7.694;2022-10-22T12:32:03;0.70;;;0.30;;
5999;SDS011;3028;49.468;7.694;2022-10-22T12:34:05;2.38;;;0.93;;
5999;SDS011;3028;49.468;7.694;2022-10-22T12:36:13;0.40;;;0.40;;
5999;SDS011;3028;49.468;7.694;2022-10-22T12:38:17;0.47;;;0.47;;
5999;SDS011;3028;49.468;7.694;2022-10-22T12:40:28;0.65;;;0.20;;
5999;SDS011;3028;49.468;7.694;2022-10-22T12:42:31;0.82;;;0.45;;
5999;SDS011;3028;49.468;7.694;2022-10-22T12:44:32;0.32;;;0.20;;
5999;SDS011;3028;49.468;7.694;2022-10-22T12:46:34;0.55;;;0.40;;
5999;SDS011;3028;49.468;7.694;2022-10-22T12:48:37;0.85;;;0.80;;
5999;SDS011;3028;49.468;7.694;2022-10-22T12:50:42;0.30;;;0.20;;
5999;SDS011;3028;49.468;7.694;2022-10-22T12:52:46;1.08;;;0.38;;
5999;SDS011;3028;49.468;7.694;2022-10-22T12:54:49;0.50;;;0.40;;
5999;SDS011;3028;49.468;7.694;2022-10-22T12:56:53;0.95;;;0.40;;
5999;SDS011;3028;49.468;7.694;2022-10-22T12:58:59;0.75;;;0.38;;
5999;SDS011;3028;49.468;7.694;2022-10-22T13:01:03;0.82;;;0.30;;
5999;SDS011;3028;49.468;7.694;2022-10-22T13:03:05;0.20;;;0.20;;
5999;SDS011;3028;49.468;7.694;2022-10-22T13:07:21;0.73;;;0.32;;
5999;SDS011;3028;49.468;7.694;2022-10-22T13:09:23;0.22;;;0.20;;
5999;SDS011;3028;49.468;7.694;2022-10-22T13:11:38;0.75;;;0.70;;
5999;SDS011;3028;49.468;7.694;2022-10-22T13:14:13;0.30;;;0.30;;
5999;SDS011;3028;49.468;7.694;2022-10-22T13:16:37;1.73;;;0.70;;
5999;SDS011;3028;49.468;7.694;2022-10-22T13:18:40;2.40;;;0.25;;
5999;SDS011;3028;49.468;7.694;2022-10-22T13:21:00;0.60;;;0.40;;
5999;SDS011;3028;49.468;7.694;2022-10-22T13:23:04;0.30;;;0.30;;
5999;SDS011;3028;49.468;7.694;2022-10-22T13:27:14;0.32;;;0.32;;
5999;SDS011;3028;49.468;7.694;2022-10-22T13:29:16;1.10;;;0.40;;
5999;SDS011;3028;49.468;7.694;2022-10-22T13:31:23;0.45;;;0.30;;
5999;SDS011;3028;49.468;7.694;2022-10-22T13:33:29;0.88;;;0.88;;
5999;SDS011;3028;49.468;7.694;2022-10-22T13:35:35;0.80;;;0.30;;
5999;SDS011;3028;49.468;7.694;2022-10-22T13:37:37;0.38;;;0.32;;
5999;SDS011;3028;49.468;7.694;2022-10-22T13:39:39;0.63;;;0.43;;
5999;SDS011;3028;49.468;7.694;2022-10-22T13:41:41;0.70;;;0.70;;
5999;SDS011;3028;49.468;7.694;2022-10-22T13:43:43;0.80;;;0.80;;
5999;SDS011;3028;49.468;7.694;2022-10-22T13:45:45;1.23;;;0.50;;
5999;SDS011;3028;49.468;7.694;2022-10-22T13:47:51;0.60;;;0.40;;
5999;SDS011;3028;49.468;7.694;2022-10-22T13:49:54;1.02;;;0.63;;
5999;SDS011;3028;49.468;7.694;2022-10-22T13:51:59;0.30;;;0.30;;
5999;SDS011;3028;49.468;7.694;2022-10-22T13:54:01;1.15;;;0.40;;
5999;SDS011;3028;49.468;7.694;2022-10-22T13:56:04;0.38;;;0.38;;
5999;SDS011;3028;49.468;7.694;2022-10-22T13:58:09;0.22;;;0.22;;
5999;SDS011;3028;49.468;7.694;2022-10-22T14:00:19;1.40;;;0.50;;
5999;SDS011;3028;49.468;7.694;2022-10-22T14:02:21;0.70;;;0.50;;
5999;SDS011;3028;49.468;7.694;2022-10-22T14:04:24;0.70;;;0.45;;
5999;SDS011;3028;49.468;7.694;2022-10-22T14:06:29;0.40;;;0.35;;
5999;SDS011;3028;49.468;7.694;2022-10-22T14:08:31;0.80;;;0.40;;
5999;SDS011;3028;49.468;7.694;2022-10-22T14:10:33;0.40;;;0.40;;
5999;SDS011;3028;49.468;7.694;2022-10-22T14:12:35;1.15;;;0.50;;
5999;SDS011;3028;49.468;7.694;2022-10-22T14:14:37;0.45;;;0.40;;
5999;SDS011;3028;49.468;7.694;2022-10-22T14:16:38;0.50;;;0.50;;
5999;SDS011;3028;49.468;7.694;2022-10-22T14:18:40;0.82;;;0.57;;
5999;SDS011;3028;49.468;7.694;2022-10-22T14:20:42;0.30;;;0.30;;
5999;SDS011;3028;49.468;7.694;2022-10-22T14:22:44;0.93;;;0.68;;
5999;SDS011;3028;49.468;7.694;2022-10-22T14:24:47;0.40;;;0.40;;
5999;SDS011;3028;49.468;7.694;2022-10-22T14:26:49;0.60;;;0.60;;